Time;durP1;ratioP1;P1;durP2;ratioP2;P2;SDS_P1;SDS_P2;PMS_P1;PMS_P2;Temp;Humidity;BMP_temperature;BMP_pressure;BME280_temperature;BME280_humidity;BME280_pressure;Samples;Min_cycle;Max_cycle;Signal;HPM_P1;HPM_P2
2023/02/25 00:01:39;;;;;;;1.60;1.27;;;;;;;;;;4965219;28;20058;-64
2023/02/25 00:04:06;;;;;;;1.50;1.30;;;;;;;;;;4965907;28;20050;-65
2023/02/25 00:06:32;;;;;;;1.33;1.07;;;;;;;;;;4968517;28;20121;-64
2023/02/25 00:08:59;;;;;;;3.00;1.40;;;;;;;;;;4969590;28;20371;-64
2023/02/25 00:11:27;;;;;;;4.27;1.83;;;;;;;;;;4968853;28;20050;-64
2023/02/25 00:13:54;;;;;;;3.37;1.77;;;;;;;;;;4968409;28;20117;-66
2023/02/25 00:16:22;;;;;;;2.43;1.53;;;;;;;;;;4967100;28;20557;-63
2023/02/25 00:18:52;;;;;;;10.23;1.73;;;;;;;;;;4963541;28;20026;-64
2023/02/25 00:21:19;;;;;;;4.37;2.20;;;;;;;;;;4963432;28;20026;-63
2023/02/25 00:23:48;;;;;;;4.40;1.70;;;;;;;;;;4963965;28;20038;-63
2023/02/25 00:26:15;;;;;;;2.70;1.50;;;;;;;;;;4965357;28;20422;-65
2023/02/25 00:28:42;;;;;;;1.73;1.40;;;;;;;;;;4968221;28;20485;-64
2023/02/25 00:31:17;;;;;;;2.90;1.63;;;;;;;;;;4968770;28;20401;-64
2023/02/25 00:33:44;;;;;;;2.17;1.58;;;;;;;;;;4968283;28;20114;-65
2023/02/25 00:36:13;;;;;;;3.20;2.03;;;;;;;;;;4968270;28;20027;-63
2023/02/25 00:38:40;;;;;;;2.10;1.40;;;;;;;;;;4967754;28;20481;-65
2023/02/25 00:41:10;;;;;;;3.20;1.93;;;;;;;;;;4963603;28;20449;-64
2023/02/25 00:43:41;;;;;;;4.43;1.83;;;;;;;;;;4962590;28;20026;-64
2023/02/25 00:46:08;;;;;;;3.10;1.97;;;;;;;;;;4963502;28;20027;-64
2023/02/25 00:48:35;;;;;;;2.03;1.50;;;;;;;;;;4964832;28;20034;-64
2023/02/25 00:51:12;;;;;;;3.47;1.70;;;;;;;;;;4968525;28;20125;-65
2023/02/25 00:53:39;;;;;;;8.30;1.87;;;;;;;;;;4968101;28;20050;-64
2023/02/25 00:56:06;;;;;;;8.30;2.17;;;;;;;;;;4967617;28;20023;-64
2023/02/25 00:58:36;;;;;;;5.20;2.07;;;;;;;;;;4967883;28;20035;-63
2023/02/25 01:01:05;;;;;;;3.13;1.93;;;;;;;;;;4966071;28;20026;-64
2023/02/25 01:03:32;;;;;;;2.97;1.97;;;;;;;;;;4962877;28;20031;-64
2023/02/25 01:05:59;;;;;;;9.00;2.67;;;;;;;;;;4963081;28;20041;-63
2023/02/25 01:08:26;;;;;;;3.97;2.00;;;;;;;;;;4963194;28;20109;-63
2023/02/25 01:10:52;;;;;;;2.67;1.93;;;;;;;;;;4963937;28;20038;-63
2023/02/25 01:13:19;;;;;;;3.47;1.83;;;;;;;;;;4968255;28;20106;-65
2023/02/25 01:15:46;;;;;;;2.73;1.83;;;;;;;;;;4967519;28;20022;-63
2023/02/25 01:18:12;;;;;;;3.57;2.03;;;;;;;;;;4967614;28;20498;-64
2023/02/25 01:20:40;;;;;;;9.37;1.70;;;;;;;;;;4968459;28;20429;-63
2023/02/25 01:23:07;;;;;;;1.90;1.40;;;;;;;;;;4966354;28;20026;-64
2023/02/25 01:25:33;;;;;;;4.07;2.00;;;;;;;;;;4962201;28;20046;-63
2023/02/25 01:28:00;;;;;;;3.93;2.33;;;;;;;;;;4962701;28;20042;-63
2023/02/25 01:30:29;;;;;;;5.10;2.57;;;;;;;;;;4961971;28;20050;-63
2023/02/25 01:32:55;;;;;;;3.50;2.13;;;;;;;;;;4962579;28;20470;-65
2023/02/25 01:35:22;;;;;;;3.40;2.23;;;;;;;;;;4967555;28;20437;-64
2023/02/25 01:37:49;;;;;;;8.07;2.50;;;;;;;;;;4967131;28;20031;-64
2023/02/25 01:40:17;;;;;;;5.83;2.77;;;;;;;;;;4967851;28;20034;-63
2023/02/25 01:42:45;;;;;;;5.67;2.03;;;;;;;;;;4967116;28;20393;-64
2023/02/25 01:45:18;;;;;;;4.63;2.50;;;;;;;;;;4967063;28;20031;-63
2023/02/25 01:47:46;;;;;;;1.63;1.07;;;;;;;;;;4962595;28;20030;-63
2023/02/25 01:50:12;;;;;;;6.13;2.80;;;;;;;;;;4961825;28;20034;-64
2023/02/25 01:52:39;;;;;;;3.33;1.67;;;;;;;;;;4961890;28;20034;-63
2023/02/25 01:55:08;;;;;;;3.10;2.07;;;;;;;;;;4962362;28;20031;-63
2023/02/25 01:57:34;;;;;;;3.10;2.07;;;;;;;;;;4967281;28;20121;-64
2023/02/25 02:00:07;;;;;;;3.37;2.30;;;;;;;;;;4967391;28;20034;-63
2023/02/25 02:02:35;;;;;;;4.32;1.60;;;;;;;;;;4966506;28;20030;-63
2023/02/25 02:05:02;;;;;;;18.50;2.37;;;;;;;;;;4967279;28;20401;-63
2023/02/25 02:07:29;;;;;;;5.00;2.87;;;;;;;;;;4966349;28;20033;-64
2023/02/25 02:09:56;;;;;;;4.23;2.23;;;;;;;;;;4961286;28;20054;-63
2023/02/25 02:12:27;;;;;;;2.30;1.60;;;;;;;;;;4962153;28;20030;-64
2023/02/25 02:14:55;;;;;;;33.67;3.43;;;;;;;;;;4961821;28;20892;-66
2023/02/25 02:17:27;;;;;;;3.07;1.77;;;;;;;;;;4961251;28;20113;-63
2023/02/25 02:20:06;;;;;;;2.73;1.87;;;;;;;;;;4967199;28;20035;-63
2023/02/25 02:22:48;;;;;;;2.20;1.30;;;;;;;;;;4966573;28;20181;-64
2023/02/25 02:25:14;;;;;;;12.07;2.93;;;;;;;;;;4967219;28;20056;-65
2023/02/25 02:27:44;;;;;;;5.50;2.73;;;;;;;;;;4966653;28;20030;-64
2023/02/25 02:30:25;;;;;;;3.30;1.77;;;;;;;;;;4965177;28;20030;-64
2023/02/25 02:33:04;;;;;;;10.43;2.03;;;;;;;;;;4962048;28;20105;-63
2023/02/25 02:35:39;;;;;;;4.57;2.53;;;;;;;;;;4961843;28;20473;-64
2023/02/25 02:38:14;;;;;;;7.40;2.53;;;;;;;;;;4961923;28;20609;-65
2023/02/25 02:40:59;;;;;;;2.77;1.67;;;;;;;;;;4963385;28;20065;-64
2023/02/25 02:43:37;;;;;;;19.45;2.30;;;;;;;;;;4966587;28;20023;-63
2023/02/25 02:46:07;;;;;;;2.47;1.67;;;;;;;;;;4966405;28;20039;-63
2023/02/25 02:48:36;;;;;;;7.03;2.20;;;;;;;;;;4967141;28;20061;-66
2023/02/25 02:51:05;;;;;;;2.27;1.63;;;;;;;;;;4966600;28;20509;-65
2023/02/25 02:53:44;;;;;;;3.83;2.20;;;;;;;;;;4964767;28;20039;-64
2023/02/25 02:56:13;;;;;;;3.07;1.90;;;;;;;;;;4965316;28;20484;-65
2023/02/25 02:58:49;;;;;;;4.23;2.57;;;;;;;;;;4965237;28;20791;-63
2023/02/25 03:01:22;;;;;;;9.77;3.00;;;;;;;;;;4964704;28;20506;-65
2023/02/25 03:03:52;;;;;;;3.50;1.97;;;;;;;;;;4968950;28;20062;-62
2023/02/25 03:06:22;;;;;;;4.60;2.07;;;;;;;;;;4970365;28;20034;-63
2023/02/25 03:08:54;;;;;;;4.87;2.63;;;;;;;;;;4969745;28;20433;-63
2023/02/25 03:11:24;;;;;;;2.97;2.07;;;;;;;;;;4969933;28;20038;-64
2023/02/25 03:13:51;;;;;;;8.40;2.67;;;;;;;;;;4969967;28;20031;-63
2023/02/25 03:16:23;;;;;;;4.90;1.73;;;;;;;;;;4965822;28;20046;-63
2023/02/25 03:18:57;;;;;;;4.43;2.63;;;;;;;;;;4964491;28;20046;-63
2023/02/25 03:21:30;;;;;;;4.63;2.25;;;;;;;;;;4964919;28;20381;-64
2023/02/25 03:23:57;;;;;;;2.30;1.77;;;;;;;;;;4964677;28;20537;-62
2023/02/25 03:26:28;;;;;;;3.33;2.17;;;;;;;;;;4968794;28;20042;-64
2023/02/25 03:28:55;;;;;;;10.77;2.27;;;;;;;;;;4970022;28;20037;-63
2023/02/25 03:31:25;;;;;;;6.47;2.80;;;;;;;;;;4969706;28;20450;-64
2023/02/25 03:33:55;;;;;;;4.40;2.80;;;;;;;;;;4969973;28;20019;-63
2023/02/25 03:36:28;;;;;;;3.40;2.07;;;;;;;;;;4969620;28;20034;-64
2023/02/25 03:38:59;;;;;;;4.80;2.17;;;;;;;;;;4964108;28;20031;-64
2023/02/25 03:41:27;;;;;;;6.40;2.43;;;;;;;;;;4964789;28;20842;-65
2023/02/25 03:43:56;;;;;;;3.70;2.37;;;;;;;;;;4964601;28;20031;-63
2023/02/25 03:46:22;;;;;;;4.23;2.03;;;;;;;;;;4964202;28;20034;-63
2023/02/25 03:48:50;;;;;;;5.17;2.97;;;;;;;;;;4968959;28;20046;-63
2023/02/25 03:51:20;;;;;;;2.87;2.00;;;;;;;;;;4969696;28;20433;-64
2023/02/25 03:53:46;;;;;;;5.57;2.60;;;;;;;;;;4969980;28;20536;-63
2023/02/25 03:56:13;;;;;;;2.70;2.10;;;;;;;;;;4969341;28;20081;-64
2023/02/25 03:58:41;;;;;;;38.17;3.47;;;;;;;;;;4968980;28;20094;-63
2023/02/25 04:01:10;;;;;;;2.93;1.70;;;;;;;;;;4965584;28;20027;-62
2023/02/25 04:03:37;;;;;;;8.23;2.77;;;;;;;;;;4963638;28;20081;-65
2023/02/25 04:06:03;;;;;;;4.07;2.03;;;;;;;;;;4963816;28;20034;-64
2023/02/25 04:08:30;;;;;;;2.93;2.17;;;;;;;;;;4963622;28;20058;-65
2023/02/25 04:10:57;;;;;;;6.97;2.57;;;;;;;;;;4968412;28;20498;-64
2023/02/25 04:13:23;;;;;;;6.03;2.67;;;;;;;;;;4968836;28;20093;-63
2023/02/25 04:15:50;;;;;;;3.53;2.23;;;;;;;;;;4969631;28;20089;-63
2023/02/25 04:18:17;;;;;;;3.10;2.33;;;;;;;;;;4968889;28;20439;-64
2023/02/25 04:20:43;;;;;;;2.43;2.13;;;;;;;;;;4968755;28;20030;-64
2023/02/25 04:23:19;;;;;;;5.00;2.80;;;;;;;;;;4964367;28;20094;-66
2023/02/25 04:25:45;;;;;;;5.53;2.50;;;;;;;;;;4963630;28;20787;-64
2023/02/25 04:28:12;;;;;;;6.33;2.00;;;;;;;;;;4963663;28;20027;-64
2023/02/25 04:30:39;;;;;;;4.43;2.47;;;;;;;;;;4963702;28;20035;-63
2023/02/25 04:33:06;;;;;;;3.50;1.87;;;;;;;;;;4967388;28;20031;-63
2023/02/25 04:35:32;;;;;;;5.23;2.63;;;;;;;;;;4969121;28;20095;-65
2023/02/25 04:37:59;;;;;;;14.40;2.03;;;;;;;;;;4968061;28;20026;-63
2023/02/25 04:40:26;;;;;;;3.67;2.03;;;;;;;;;;4968759;28;20074;-64
2023/02/25 04:42:52;;;;;;;10.30;3.20;;;;;;;;;;4968998;28;20048;-63
2023/02/25 04:45:24;;;;;;;14.10;3.20;;;;;;;;;;4964103;28;20311;-63
2023/02/25 04:47:56;;;;;;;6.20;3.20;;;;;;;;;;4962790;28;20039;-63
2023/02/25 04:50:23;;;;;;;2.93;2.20;;;;;;;;;;4963530;28;20544;-64
2023/02/25 04:52:50;;;;;;;4.40;2.50;;;;;;;;;;4962239;28;20038;-63
2023/02/25 04:55:17;;;;;;;5.67;2.87;;;;;;;;;;4966676;28;20030;-63
2023/02/25 04:57:43;;;;;;;3.60;2.07;;;;;;;;;;4967649;28;20027;-64
2023/02/25 05:00:17;;;;;;;2.67;2.27;;;;;;;;;;4968493;28;20030;-64
2023/02/25 05:02:45;;;;;;;2.57;1.90;;;;;;;;;;4968355;28;20085;-63
2023/02/25 05:05:11;;;;;;;3.97;2.47;;;;;;;;;;4968069;28;20027;-65
2023/02/25 05:07:38;;;;;;;6.60;1.80;;;;;;;;;;4963868;28;20031;-62
2023/02/25 05:10:06;;;;;;;5.77;3.07;;;;;;;;;;4963047;28;20062;-64
2023/02/25 05:12:33;;;;;;;2.30;1.90;;;;;;;;;;4962543;28;20039;-63
2023/02/25 05:14:59;;;;;;;4.37;2.40;;;;;;;;;;4962743;28;20046;-63
2023/02/25 05:17:26;;;;;;;3.87;2.50;;;;;;;;;;4965309;28;20273;-63
2023/02/25 05:19:53;;;;;;;3.93;2.20;;;;;;;;;;4967858;28;20035;-63
2023/02/25 05:22:21;;;;;;;5.97;1.80;;;;;;;;;;4968556;28;20041;-63
2023/02/25 05:24:48;;;;;;;2.30;1.77;;;;;;;;;;4967126;28;20023;-63
2023/02/25 05:27:14;;;;;;;5.07;2.70;;;;;;;;;;4967374;28;20358;-63
2023/02/25 05:29:41;;;;;;;4.00;2.50;;;;;;;;;;4964302;28;20042;-63
2023/02/25 05:32:08;;;;;;;3.67;2.17;;;;;;;;;;4962165;28;20031;-63
2023/02/25 05:34:35;;;;;;;12.83;2.67;;;;;;;;;;4962764;28;20133;-63
2023/02/25 05:37:01;;;;;;;4.77;2.53;;;;;;;;;;4962519;28;20035;-63
2023/02/25 05:39:28;;;;;;;2.93;2.03;;;;;;;;;;4964835;28;20035;-63
2023/02/25 05:41:55;;;;;;;3.70;2.03;;;;;;;;;;4967777;28;20019;-63
2023/02/25 05:44:22;;;;;;;2.40;2.00;;;;;;;;;;4967329;28;20062;-63
2023/02/25 05:46:48;;;;;;;2.70;1.30;;;;;;;;;;4966914;28;20042;-63
2023/02/25 05:49:15;;;;;;;2.90;2.03;;;;;;;;;;4967878;28;20096;-63
2023/02/25 05:51:42;;;;;;;6.63;1.70;;;;;;;;;;4964302;28;20027;-63
2023/02/25 05:54:08;;;;;;;5.23;2.27;;;;;;;;;;4962571;28;20222;-63
2023/02/25 05:56:35;;;;;;;5.90;2.43;;;;;;;;;;4961623;28;20023;-63
2023/02/25 05:59:02;;;;;;;3.50;2.17;;;;;;;;;;4961742;28;20037;-64
2023/02/25 06:01:30;;;;;;;2.20;1.83;;;;;;;;;;4964158;28;20617;-64
2023/02/25 06:03:57;;;;;;;1.67;1.50;;;;;;;;;;4966781;28;20031;-63
2023/02/25 06:06:25;;;;;;;2.67;1.43;;;;;;;;;;4966784;28;20512;-63
2023/02/25 06:08:55;;;;;;;4.40;2.43;;;;;;;;;;4967329;28;20030;-63
2023/02/25 06:11:24;;;;;;;2.53;1.87;;;;;;;;;;4966787;28;20042;-63
2023/02/25 06:13:51;;;;;;;3.90;2.30;;;;;;;;;;4964927;28;20035;-63
2023/02/25 06:16:18;;;;;;;1.73;1.37;;;;;;;;;;4961531;28;20109;-63
2023/02/25 06:18:45;;;;;;;3.23;2.03;;;;;;;;;;4961367;28;20026;-63
2023/02/25 06:21:13;;;;;;;4.00;2.17;;;;;;;;;;4961711;28;20098;-63
2023/02/25 06:23:40;;;;;;;4.53;1.80;;;;;;;;;;4963306;28;20027;-63
2023/02/25 06:26:08;;;;;;;1.87;1.57;;;;;;;;;;4966789;28;20035;-65
2023/02/25 06:28:35;;;;;;;5.40;2.03;;;;;;;;;;4972807;28;20035;-63
2023/02/25 06:31:02;;;;;;;2.90;2.00;;;;;;;;;;4972978;28;20034;-63
2023/02/25 06:33:31;;;;;;;4.13;1.83;;;;;;;;;;4973538;28;20027;-64
2023/02/25 06:35:58;;;;;;;3.77;1.63;;;;;;;;;;4970994;28;20093;-63
2023/02/25 06:38:25;;;;;;;2.73;2.30;;;;;;;;;;4967813;28;20039;-63
2023/02/25 06:40:52;;;;;;;2.20;1.17;;;;;;;;;;4968333;28;20037;-63
2023/02/25 06:43:18;;;;;;;8.70;2.10;;;;;;;;;;4967820;28;20042;-63
2023/02/25 06:45:45;;;;;;;2.90;1.70;;;;;;;;;;4969145;28;20042;-63
2023/02/25 06:48:12;;;;;;;2.73;1.37;;;;;;;;;;4973280;28;20081;-63
2023/02/25 06:50:39;;;;;;;13.10;2.27;;;;;;;;;;4972794;28;20035;-63
2023/02/25 06:53:06;;;;;;;2.93;1.97;;;;;;;;;;4973673;28;20561;-62
2023/02/25 06:55:33;;;;;;;1.53;1.23;;;;;;;;;;4972782;28;20066;-63
2023/02/25 06:58:00;;;;;;;1.73;1.23;;;;;;;;;;4971210;28;20042;-62
2023/02/25 07:00:26;;;;;;;1.13;0.87;;;;;;;;;;4968349;28;20027;-63
2023/02/25 07:02:53;;;;;;;1.60;0.90;;;;;;;;;;4968073;28;20070;-62
2023/02/25 07:05:20;;;;;;;1.37;1.27;;;;;;;;;;4967128;28;20042;-63
2023/02/25 07:07:46;;;;;;;3.10;2.23;;;;;;;;;;4969133;28;20054;-63
2023/02/25 07:10:13;;;;;;;2.27;1.70;;;;;;;;;;4972886;28;20089;-63
2023/02/25 07:12:40;;;;;;;3.27;2.47;;;;;;;;;;4973084;28;20042;-63
2023/02/25 07:15:07;;;;;;;1.90;1.10;;;;;;;;;;4972945;28;20733;-63
2023/02/25 07:17:33;;;;;;;1.33;0.97;;;;;;;;;;4971410;28;20022;-62
2023/02/25 07:20:00;;;;;;;1.90;1.60;;;;;;;;;;4971106;28;20035;-63
2023/02/25 07:22:27;;;;;;;3.93;1.73;;;;;;;;;;4967065;28;20069;-63
2023/02/25 07:24:53;;;;;;;3.07;1.83;;;;;;;;;;4966808;28;20031;-65
2023/02/25 07:27:21;;;;;;;2.20;1.53;;;;;;;;;;4967471;28;20030;-63
2023/02/25 07:29:48;;;;;;;1.73;1.33;;;;;;;;;;4967753;28;21834;-63
2023/02/25 07:32:14;;;;;;;2.87;1.70;;;;;;;;;;4972594;28;20062;-63
2023/02/25 07:34:41;;;;;;;2.77;1.97;;;;;;;;;;4972609;28;20027;-63
2023/02/25 07:37:08;;;;;;;2.50;1.87;;;;;;;;;;4973117;28;20030;-63
2023/02/25 07:39:35;;;;;;;2.13;1.40;;;;;;;;;;4969542;28;20031;-64
2023/02/25 07:42:01;;;;;;;2.50;1.80;;;;;;;;;;4969666;28;20500;-63
2023/02/25 07:44:28;;;;;;;4.00;1.70;;;;;;;;;;4964474;28;20057;-63
2023/02/25 07:46:55;;;;;;;3.00;2.07;;;;;;;;;;4964127;28;20053;-63
2023/02/25 07:49:21;;;;;;;1.53;1.43;;;;;;;;;;4964967;28;20027;-63
2023/02/25 07:51:48;;;;;;;2.37;1.80;;;;;;;;;;4963942;28;20034;-63
2023/02/25 07:54:16;;;;;;;2.27;1.70;;;;;;;;;;4968985;28;20031;-63
2023/02/25 07:56:42;;;;;;;20.47;1.83;;;;;;;;;;4970035;28;20486;-63
2023/02/25 07:59:10;;;;;;;2.83;1.77;;;;;;;;;;4969069;28;20097;-63
2023/02/25 08:01:38;;;;;;;2.57;1.90;;;;;;;;;;4969773;28;20548;-63
2023/02/25 08:04:05;;;;;;;4.03;1.47;;;;;;;;;;4968807;28;20037;-63
2023/02/25 08:06:36;;;;;;;2.73;1.50;;;;;;;;;;4963962;28;20046;-63
2023/02/25 08:09:11;;;;;;;1.93;1.50;;;;;;;;;;4964810;28;20055;-63
2023/02/25 08:11:38;;;;;;;3.10;1.87;;;;;;;;;;4963695;28;20110;-63
2023/02/25 08:14:05;;;;;;;3.83;2.13;;;;;;;;;;4963812;28;20027;-63
2023/02/25 08:16:32;;;;;;;1.37;1.27;;;;;;;;;;4969373;28;20019;-63
2023/02/25 08:18:59;;;;;;;7.53;1.87;;;;;;;;;;4968930;28;20042;-64
2023/02/25 08:21:26;;;;;;;1.57;1.27;;;;;;;;;;4969003;28;20034;-63
2023/02/25 08:23:53;;;;;;;2.63;1.60;;;;;;;;;;4968944;28;20085;-63
2023/02/25 08:26:21;;;;;;;2.23;1.73;;;;;;;;;;4968326;28;20085;-62
2023/02/25 08:28:48;;;;;;;1.63;1.47;;;;;;;;;;4964212;28;20057;-62
2023/02/25 08:31:15;;;;;;;2.47;2.03;;;;;;;;;;4963683;28;20097;-64
2023/02/25 08:33:43;;;;;;;1.37;1.10;;;;;;;;;;4963785;28;20795;-63
2023/02/25 08:36:14;;;;;;;2.90;1.60;;;;;;;;;;4963715;28;20307;-63
2023/02/25 08:38:41;;;;;;;2.00;1.40;;;;;;;;;;4968003;28;20269;-64
2023/02/25 08:41:08;;;;;;;2.30;1.47;;;;;;;;;;4968550;28;20039;-62
2023/02/25 08:43:35;;;;;;;2.80;1.80;;;;;;;;;;4968499;28;20276;-63
2023/02/25 08:46:03;;;;;;;9.17;2.73;;;;;;;;;;4968089;28;20335;-63
2023/02/25 08:48:29;;;;;;;2.37;1.77;;;;;;;;;;4968895;28;20037;-62
2023/02/25 08:50:56;;;;;;;3.10;1.93;;;;;;;;;;4961830;28;20035;-63
2023/02/25 08:53:23;;;;;;;1.70;1.40;;;;;;;;;;4963054;28;20070;-63
2023/02/25 08:55:52;;;;;;;1.60;1.37;;;;;;;;;;4963749;28;20276;-62
2023/02/25 08:58:19;;;;;;;1.77;1.23;;;;;;;;;;4962859;28;20359;-63
2023/02/25 09:00:48;;;;;;;1.73;1.43;;;;;;;;;;4967515;28;20666;-63
2023/02/25 09:03:15;;;;;;;2.93;1.80;;;;;;;;;;4968562;28;20275;-63
2023/02/25 09:05:42;;;;;;;1.77;1.40;;;;;;;;;;4967598;28;20629;-63
2023/02/25 09:08:09;;;;;;;1.67;1.40;;;;;;;;;;4968237;28;20272;-63
2023/02/25 09:10:37;;;;;;;2.50;1.63;;;;;;;;;;4968066;28;20281;-63
2023/02/25 09:13:03;;;;;;;2.77;1.80;;;;;;;;;;4962309;28;20270;-63
2023/02/25 09:15:31;;;;;;;1.27;1.07;;;;;;;;;;4962693;28;20600;-64
2023/02/25 09:17:58;;;;;;;2.87;1.80;;;;;;;;;;4963144;28;20339;-63
2023/02/25 09:20:25;;;;;;;1.57;1.10;;;;;;;;;;4962712;28;20272;-63
2023/02/25 09:22:53;;;;;;;1.30;1.13;;;;;;;;;;4966636;28;20316;-62
2023/02/25 09:25:20;;;;;;;1.20;0.80;;;;;;;;;;4968245;28;20331;-62
2023/02/25 09:27:47;;;;;;;0.70;0.70;;;;;;;;;;4967163;28;20264;-63
2023/02/25 09:30:14;;;;;;;1.87;1.27;;;;;;;;;;4969087;28;20748;-62
2023/02/25 09:32:41;;;;;;;0.93;0.87;;;;;;;;;;4967534;28;20276;-62
2023/02/25 09:35:08;;;;;;;4.30;1.50;;;;;;;;;;4964060;28;20268;-63
2023/02/25 09:37:35;;;;;;;1.73;1.17;;;;;;;;;;4962881;28;20276;-65
2023/02/25 09:40:04;;;;;;;1.37;1.00;;;;;;;;;;4962258;28;20276;-62
2023/02/25 09:42:51;;;;;;;3.03;1.73;;;;;;;;;;4962086;28;20277;-64
2023/02/25 09:45:18;;;;;;;1.73;1.37;;;;;;;;;;4936331;28;20301;-62
2023/02/25 09:47:50;;;;;;;1.50;1.10;;;;;;;;;;4967418;28;20759;-62
2023/02/25 09:50:22;;;;;;;3.27;1.70;;;;;;;;;;4967794;28;20272;-62
2023/02/25 09:53:01;;;;;;;5.37;1.93;;;;;;;;;;4967348;28;20268;-63
2023/02/25 09:55:33;;;;;;;0.93;0.80;;;;;;;;;;4966929;28;20279;-63
2023/02/25 09:58:07;;;;;;;1.70;1.03;;;;;;;;;;4962545;28;20631;-63
2023/02/25 10:00:37;;;;;;;4.28;2.00;;;;;;;;;;4962409;28;20277;-64
2023/02/25 10:03:25;;;;;;;4.67;1.67;;;;;;;;;;4961788;28;20432;-62
2023/02/25 10:05:55;;;;;;;0.87;0.77;;;;;;;;;;4962318;28;20721;-63
2023/02/25 10:08:25;;;;;;;0.77;0.73;;;;;;;;;;4966891;28;20380;-63
2023/02/25 10:11:04;;;;;;;1.13;0.87;;;;;;;;;;4967378;28;20407;-64
2023/02/25 10:13:37;;;;;;;1.23;1.03;;;;;;;;;;4966957;28;20681;-63
2023/02/25 10:16:10;;;;;;;1.53;1.03;;;;;;;;;;4967434;28;20334;-64
2023/02/25 10:18:55;;;;;;;1.60;1.10;;;;;;;;;;4964705;28;20273;-63
2023/02/25 10:21:22;;;;;;;0.70;0.55;;;;;;;;;;4961395;28;20260;-63
2023/02/25 10:24:01;;;;;;;0.63;0.60;;;;;;;;;;4962047;28;20542;-62
2023/02/25 10:26:37;;;;;;;1.80;1.23;;;;;;;;;;4961540;28;20800;-62
2023/02/25 10:29:05;;;;;;;0.40;0.40;;;;;;;;;;4964382;28;20328;-62
2023/02/25 10:31:33;;;;;;;0.60;0.60;;;;;;;;;;4967311;28;20267;-63
2023/02/25 10:34:15;;;;;;;1.07;0.90;;;;;;;;;;4966638;28;20269;-62
2023/02/25 10:36:44;;;;;;;0.90;0.70;;;;;;;;;;4967017;28;20823;-63
2023/02/25 10:39:11;;;;;;;1.17;0.90;;;;;;;;;;4966697;28;20339;-64
2023/02/25 10:41:38;;;;;;;0.87;0.70;;;;;;;;;;4962925;28;20688;-62
2023/02/25 10:44:05;;;;;;;0.50;0.50;;;;;;;;;;4961984;28;20352;-64
2023/02/25 10:46:37;;;;;;;1.00;0.80;;;;;;;;;;4961276;28;20354;-62
2023/02/25 10:49:15;;;;;;;1.60;1.10;;;;;;;;;;4961380;28;20273;-63
2023/02/25 10:52:01;;;;;;;1.57;0.50;;;;;;;;;;4964668;28;21559;-62
2023/02/25 10:54:29;;;;;;;0.50;0.47;;;;;;;;;;4966358;28;20330;-63
2023/02/25 10:56:57;;;;;;;1.10;0.80;;;;;;;;;;4967038;28;20756;-62
2023/02/25 10:59:24;;;;;;;1.23;0.80;;;;;;;;;;4966261;28;20379;-63
2023/02/25 11:01:51;;;;;;;1.83;0.90;;;;;;;;;;4966522;28;20646;-63
2023/02/25 11:04:19;;;;;;;0.67;0.67;;;;;;;;;;4962907;28;20759;-62
2023/02/25 11:06:47;;;;;;;0.30;0.23;;;;;;;;;;4961335;28;20384;-62
2023/02/25 11:09:19;;;;;;;0.90;0.73;;;;;;;;;;4961361;28;20304;-62
2023/02/25 11:12:23;;;;;;;0.47;0.47;;;;;;;;;;4960645;28;20331;-62
2023/02/25 11:14:50;;;;;;;1.10;0.80;;;;;;;;;;4909003;29;20386;-62
2023/02/25 11:17:21;;;;;;;1.13;0.87;;;;;;;;;;4958576;28;20274;-62
2023/02/25 11:19:54;;;;;;;1.00;0.90;;;;;;;;;;4969779;28;20269;-62
2023/02/25 11:22:25;;;;;;;1.33;0.93;;;;;;;;;;4970592;28;20347;-62
2023/02/25 11:24:58;;;;;;;1.33;0.83;;;;;;;;;;4968639;28;20616;-64
2023/02/25 11:27:28;;;;;;;1.30;1.13;;;;;;;;;;4964674;28;20316;-62
2023/02/25 11:30:00;;;;;;;1.50;1.00;;;;;;;;;;4964563;28;20623;-62
2023/02/25 11:32:27;;;;;;;1.17;0.80;;;;;;;;;;4964713;28;20268;-62
2023/02/25 11:34:59;;;;;;;0.87;0.70;;;;;;;;;;4965851;28;20273;-62
2023/02/25 11:37:35;;;;;;;1.17;1.07;;;;;;;;;;4969963;28;20273;-62
2023/02/25 11:40:06;;;;;;;1.00;0.80;;;;;;;;;;4969292;28;20364;-62
2023/02/25 11:42:33;;;;;;;1.23;0.77;;;;;;;;;;4969640;28;20288;-62
2023/02/25 11:45:00;;;;;;;1.23;0.93;;;;;;;;;;4969147;28;20268;-63
2023/02/25 11:47:36;;;;;;;0.80;0.70;;;;;;;;;;4968595;28;20272;-62
2023/02/25 11:50:06;;;;;;;0.40;0.40;;;;;;;;;;4964083;28;20269;-64
2023/02/25 11:52:42;;;;;;;1.00;0.90;;;;;;;;;;4963547;28;20359;-62
2023/02/25 11:55:18;;;;;;;0.50;0.47;;;;;;;;;;4964645;28;20327;-63
2023/02/25 11:57:58;;;;;;;0.60;0.50;;;;;;;;;;4966244;28;20283;-63
2023/02/25 12:00:47;;;;;;;2.63;1.30;;;;;;;;;;4968977;28;20277;-63
2023/02/25 12:03:34;;;;;;;0.67;0.67;;;;;;;;;;4968890;28;20267;-62
2023/02/25 12:06:07;;;;;;;1.43;1.10;;;;;;;;;;4968661;28;20297;-62
2023/02/25 12:08:41;;;;;;;0.57;0.50;;;;;;;;;;4969641;28;20751;-62
2023/02/25 12:11:20;;;;;;;1.97;0.83;;;;;;;;;;4965277;28;20280;-63
2023/02/25 12:13:58;;;;;;;2.13;1.50;;;;;;;;;;4964411;28;20372;-64
2023/02/25 12:16:28;;;;;;;1.43;1.13;;;;;;;;;;4963705;28;20319;-63
2023/02/25 12:19:07;;;;;;;0.83;0.70;;;;;;;;;;4963544;28;20352;-62
2023/02/25 12:21:54;;;;;;;1.80;1.63;;;;;;;;;;4969238;28;20264;-63
2023/02/25 12:24:50;;;;;;;2.10;1.43;;;;;;;;;;4968503;28;20324;-64
2023/02/25 12:27:17;;;;;;;7.40;1.38;;;;;;;;;;4957404;28;20287;-62
2023/02/25 12:29:57;;;;;;;1.17;0.97;;;;;;;;;;4968766;28;20109;-63
2023/02/25 12:32:40;;;;;;;1.83;0.97;;;;;;;;;;4965783;28;20778;-63
2023/02/25 12:35:25;;;;;;;1.97;1.37;;;;;;;;;;4963936;28;20276;-62
2023/02/25 12:38:02;;;;;;;2.95;1.77;;;;;;;;;;4963295;28;20272;-64
2023/02/25 12:40:43;;;;;;;3.87;1.93;;;;;;;;;;4963962;28;20027;-62
2023/02/25 12:43:18;;;;;;;2.43;1.43;;;;;;;;;;4967236;28;20272;-63
2023/02/25 12:45:47;;;;;;;7.53;1.73;;;;;;;;;;4968249;28;20866;-63
2023/02/25 12:48:32;;;;;;;3.30;1.73;;;;;;;;;;4967998;28;20276;-63
2023/02/25 12:51:17;;;;;;;1.65;1.48;;;;;;;;;;4968084;28;20264;-63
2023/02/25 12:54:03;;;;;;;1.92;1.20;;;;;;;;;;4967510;28;20409;-63
2023/02/25 12:56:35;;;;;;;2.38;1.40;;;;;;;;;;4963041;28;20110;-62
2023/02/25 12:59:11;;;;;;;1.20;1.10;;;;;;;;;;4962887;28;20035;-62
2023/02/25 13:01:57;;;;;;;1.67;1.20;;;;;;;;;;4963318;28;20261;-63
2023/02/25 13:04:39;;;;;;;4.78;2.55;;;;;;;;;;4964963;28;20339;-63
2023/02/25 13:07:24;;;;;;;6.20;2.70;;;;;;;;;;4968389;28;20035;-63
2023/02/25 13:10:03;;;;;;;7.85;2.80;;;;;;;;;;4967931;28;20273;-63
2023/02/25 13:12:56;;;;;;;4.80;3.30;;;;;;;;;;4967816;28;20045;-63
2023/02/25 13:15:26;;;;;;;3.33;2.37;;;;;;;;;;4967187;28;20310;-63
2023/02/25 13:17:59;;;;;;;1.53;1.33;;;;;;;;;;4962466;28;20268;-63
2023/02/25 13:20:44;;;;;;;1.87;1.57;;;;;;;;;;4963026;28;20369;-63
2023/02/25 13:23:16;;;;;;;12.75;3.65;;;;;;;;;;4962347;28;20810;-63
2023/02/25 13:25:46;;;;;;;2.57;1.43;;;;;;;;;;4962570;28;20035;-62
2023/02/25 13:28:13;;;;;;;1.50;1.40;;;;;;;;;;4967545;28;20375;-63
2023/02/25 13:30:57;;;;;;;8.20;2.10;;;;;;;;;;4968147;28;20284;-63
2023/02/25 13:33:39;;;;;;;2.40;1.88;;;;;;;;;;4967754;28;20265;-61
2023/02/25 13:36:24;;;;;;;12.77;2.53;;;;;;;;;;4966969;28;20039;-62
2023/02/25 13:38:54;;;;;;;7.95;3.45;;;;;;;;;;4964844;28;20323;-61
2023/02/25 13:41:48;;;;;;;36.00;2.17;;;;;;;;;;4962505;28;20038;-62
2023/02/25 13:44:28;;;;;;;2.90;2.27;;;;;;;;;;4961765;28;20300;-62
2023/02/25 13:46:54;;;;;;;6.73;3.53;;;;;;;;;;4962426;28;20679;-62
2023/02/25 13:49:36;;;;;;;2.63;2.37;;;;;;;;;;4965053;28;20386;-62
2023/02/25 13:52:15;;;;;;;2.13;1.67;;;;;;;;;;4967463;28;20284;-63
2023/02/25 13:54:42;;;;;;;3.17;1.87;;;;;;;;;;4966972;28;20367;-63
2023/02/25 13:57:20;;;;;;;4.07;2.13;;;;;;;;;;4967145;28;20268;-64
2023/02/25 13:59:55;;;;;;;2.00;1.60;;;;;;;;;;4967537;28;20810;-62
2023/02/25 14:02:36;;;;;;;3.38;2.33;;;;;;;;;;4961552;28;20264;-63
2023/02/25 14:05:03;;;;;;;2.53;1.63;;;;;;;;;;4961798;28;20023;-63
2023/02/25 14:07:36;;;;;;;3.03;2.00;;;;;;;;;;4962213;28;20033;-63
2023/02/25 14:10:18;;;;;;;3.60;2.30;;;;;;;;;;4961875;28;20046;-63
2023/02/25 14:13:03;;;;;;;3.03;2.07;;;;;;;;;;4967123;28;20034;-63
2023/02/25 14:15:42;;;;;;;6.40;3.13;;;;;;;;;;4966918;28;20026;-63
2023/02/25 14:18:09;;;;;;;3.37;2.37;;;;;;;;;;4966602;28;20549;-64
2023/02/25 14:20:48;;;;;;;5.83;3.90;;;;;;;;;;4966521;28;20022;-64
2023/02/25 14:23:33;;;;;;;3.67;2.70;;;;;;;;;;4964505;28;20049;-63
2023/02/25 14:26:19;;;;;;;4.22;2.53;;;;;;;;;;4961476;28;20039;-63
2023/02/25 14:28:45;;;;;;;;;;;;;;;;;;4961967;28;20473;-63
2023/02/25 14:31:21;;;;;;;5.63;4.00;;;;;;;;;;4962116;28;20390;-64
2023/02/25 14:34:14;;;;;;;5.47;3.90;;;;;;;;;;4964307;28;20034;-63
2023/02/25 14:36:42;;;;;;;5.83;3.13;;;;;;;;;;4964461;28;20046;-64
2023/02/25 14:39:20;;;;;;;5.73;4.17;;;;;;;;;;4966594;28;20131;-63
2023/02/25 14:41:54;;;;;;;8.40;4.30;;;;;;;;;;4964504;28;20042;-63
2023/02/25 14:44:40;;;;;;;6.10;3.97;;;;;;;;;;4966141;28;20054;-63
2023/02/25 14:47:10;;;;;;;5.90;3.77;;;;;;;;;;4959661;28;20141;-63
2023/02/25 14:49:43;;;;;;;4.63;3.33;;;;;;;;;;4964218;28;20160;-64
2023/02/25 14:52:28;;;;;;;6.43;4.33;;;;;;;;;;4965871;28;20050;-63
2023/02/25 14:55:14;;;;;;;4.35;3.42;;;;;;;;;;4967004;28;20026;-64
2023/02/25 14:57:40;;;;;;;;;;;;;;;;;;4970884;28;20482;-66
2023/02/25 15:00:26;;;;;;;8.53;4.50;;;;;;;;;;4970322;28;19909;-66
2023/02/25 15:02:52;;;;;;;;;;;;;;;;;;4970730;28;20062;-65
2023/02/25 15:05:21;;;;;;;14.37;3.97;;;;;;;;;;4970090;28;19981;-63